Time;durP1;ratioP1;P1;durP2;ratioP2;P2;SDS_P1;SDS_P2;PMS_P1;PMS_P2;Temp;Humidity;BMP_temperature;BMP_pressure;BME280_temperature;BME280_humidity;BME280_pressure;Samples;Min_cycle;Max_cycle;Signal;HPM_P1;HPM_P2
2022/03/05 00:00:30;;;;;;;20.15;2.38;;;;;;;23.61;49.42;100085.28;7311325;19;130180;-39
2022/03/05 00:02:55;;;;;;;;;;;;;;;23.43;50.13;100075.63;7312548;19;129702;-37
2022/03/05 00:05:20;;;;;;;50.80;5.37;;;;;;;23.45;49.94;100084.19;7309086;19;129201;-39
2022/03/05 00:07:46;;;;;;;25.63;2.88;;;;;;;23.32;50.03;100084.47;7307702;19;153970;-38
2022/03/05 00:10:11;;;;;;;38.33;3.73;;;;;;;23.24;50.38;100092.16;7310926;19;131194;-39
2022/03/05 00:12:37;;;;;;;23.10;2.58;;;;;;;23.17;50.47;100086.66;7309991;19;155487;-37
2022/03/05 00:15:03;;;;;;;65.00;5.68;;;;;;;23.10;51.20;100089.97;7310871;19;130505;-38
2022/03/05 00:17:28;;;;;;;29.02;2.92;;;;;;;23.04;51.76;100090.50;7307789;19;129054;-39
2022/03/05 00:19:54;;;;;;;22.77;2.50;;;;;;;23.00;51.26;100087.34;7311718;19;129922;-39
2022/03/05 00:22:19;;;;;;;24.95;2.80;;;;;;;22.95;51.64;100088.72;7308715;19;144915;-41
2022/03/05 00:24:45;;;;;;;20.80;2.70;;;;;;;22.94;52.06;100089.69;7310935;19;128975;-40
2022/03/05 00:27:10;;;;;;;35.10;3.53;;;;;;;22.92;52.26;100091.63;7309128;19;128947;-38
2022/03/05 00:29:36;;;;;;;10.73;1.47;;;;;;;22.90;51.96;100083.06;7310333;19;129227;-39
2022/03/05 00:32:01;;;;;;;31.40;3.03;;;;;;;22.94;52.33;100087.06;7307175;19;156921;-38
2022/03/05 00:34:26;;;;;;;17.52;1.95;;;;;;;22.95;52.64;100080.84;7310523;19;136299;-39
2022/03/05 00:36:51;;;;;;;19.10;2.30;;;;;;;22.97;52.14;100089.41;7306904;19;153955;-40
2022/03/05 00:39:17;;;;;;;37.00;3.67;;;;;;;23.00;52.26;100079.47;7309949;19;136669;-38
2022/03/05 00:41:42;;;;;;;40.08;3.60;;;;;;;22.96;52.89;100067.59;7307237;19;158653;-38
2022/03/05 00:44:07;;;;;;;30.50;3.15;;;;;;;23.05;52.46;100072.03;7309744;19;153610;-39
2022/03/05 00:46:32;;;;;;;17.97;2.03;;;;;;;22.81;52.80;100065.50;7309177;19;142047;-38
2022/03/05 00:48:58;;;;;;;32.47;3.38;;;;;;;22.75;53.08;100074.75;7307372;19;159016;-39
2022/03/05 00:51:23;;;;;;;13.53;1.97;;;;;;;22.75;52.87;100080.00;7305822;19;159447;-38
2022/03/05 00:53:48;;;;;;;45.47;4.63;;;;;;;22.82;52.40;100083.75;7307898;19;154737;-39
2022/03/05 00:56:13;;;;;;;39.95;3.75;;;;;;;22.98;51.64;100085.81;7307793;19;154246;-39
2022/03/05 00:58:39;;;;;;;36.30;3.77;;;;;;;23.12;51.28;100082.81;7309104;19;154674;-38
2022/03/05 01:01:04;;;;;;;31.65;3.13;;;;;;;23.29;50.73;100084.75;7308925;19;131207;-39
2022/03/05 01:03:29;;;;;;;3.53;1.38;;;;;;;23.45;50.39;100082.41;7309763;19;154583;-38
2022/03/05 01:05:54;;;;;;;45.20;4.15;;;;;;;23.63;49.62;100080.72;7307390;19;154884;-39
2022/03/05 01:08:20;;;;;;;29.45;2.97;;;;;;;23.80;49.35;100084.44;7309532;19;129055;-38
2022/03/05 01:10:45;;;;;;;36.47;3.47;;;;;;;23.90;49.25;100075.53;7306661;19;158976;-39
2022/03/05 01:13:11;;;;;;;42.30;3.87;;;;;;;23.91;49.08;100069.31;7309387;19;136297;-40
2022/03/05 01:15:36;;;;;;;18.42;2.35;;;;;;;24.10;48.47;100084.19;7310129;19;129207;-38
2022/03/05 01:18:01;;;;;;;45.42;4.25;;;;;;;24.04;48.84;100085.63;7312031;19;156170;-39
2022/03/05 01:20:27;;;;;;;28.87;3.17;;;;;;;24.00;49.02;100083.41;7314146;19;159194;-38
2022/03/05 01:22:52;;;;;;;15.50;1.92;;;;;;;23.90;48.93;100083.41;7314885;19;154695;-38
2022/03/05 01:25:18;;;;;;;23.75;2.65;;;;;;;23.82;49.14;100082.47;7315682;19;128807;-39
2022/03/05 01:27:43;;;;;;;23.17;2.47;;;;;;;23.72;49.04;100077.22;7315067;19;130161;-38
2022/03/05 01:30:09;;;;;;;28.83;2.85;;;;;;;23.61;49.42;100084.44;7314018;19;153383;-38
2022/03/05 01:32:34;;;;;;;17.20;2.03;;;;;;;23.50;49.74;100077.56;7315146;19;129068;-38
2022/03/05 01:35:00;;;;;;;36.17;3.33;;;;;;;23.41;50.37;100083.66;7314497;19;153969;-39
2022/03/05 01:37:25;;;;;;;23.80;2.85;;;;;;;23.31;50.17;100085.44;7313203;19;130234;-39
2022/03/05 01:39:50;;;;;;;23.52;2.65;;;;;;;23.24;50.83;100097.41;7315835;19;130317;-39
2022/03/05 01:42:24;;;;;;;29.60;3.13;;;;;;;23.14;50.76;100096.59;7313988;19;154389;-39
2022/03/05 01:44:49;;;;;;;11.68;2.03;;;;;;;22.96;51.17;100077.25;7316298;19;128864;-38
2022/03/05 01:47:15;;;;;;;34.47;3.35;;;;;;;22.99;51.28;100090.13;7312902;19;130208;-37
2022/03/05 01:49:40;;;;;;;19.93;2.33;;;;;;;22.82;51.82;100070.63;7315874;19;140896;-39
2022/03/05 01:52:05;;;;;;;29.30;3.17;;;;;;;22.88;52.30;100088.44;7312304;19;128857;-38
2022/03/05 01:54:31;;;;;;;14.63;1.63;;;;;;;22.82;52.02;100085.53;7315406;19;153927;-38
2022/03/05 01:56:58;;;;;;;18.33;2.25;;;;;;;22.81;52.24;100084.69;7311117;19;158250;-39
2022/03/05 01:59:24;;;;;;;11.27;1.73;;;;;;;22.69;52.52;100063.97;7315083;19;129833;-38
2022/03/05 02:01:50;;;;;;;23.20;2.42;;;;;;;22.85;52.89;100080.00;7315556;19;128946;-37
2022/03/05 02:04:15;;;;;;;27.40;3.08;;;;;;;22.83;53.39;100076.69;7315654;19;129311;-38
2022/03/05 02:06:41;;;;;;;35.60;3.55;;;;;;;22.82;53.49;100080.28;7312647;19;129757;-40
2022/03/05 02:09:06;;;;;;;30.35;2.72;;;;;;;22.84;52.74;100078.34;7314781;19;130673;-38
2022/03/05 02:11:31;;;;;;;19.55;2.17;;;;;;;22.71;53.35;100072.53;7312308;19;136552;-38
2022/03/05 02:13:57;;;;;;;37.22;3.75;;;;;;;22.58;53.34;100058.84;7313993;19;142378;-40
2022/03/05 02:16:23;;;;;;;25.55;2.80;;;;;;;22.70;52.68;100076.09;7314027;19;130208;-37
2022/03/05 02:18:50;;;;;;;28.67;3.05;;;;;;;22.84;52.06;100073.13;7314516;19;129139;-39
2022/03/05 02:21:16;;;;;;;32.70;3.33;;;;;;;22.94;51.91;100063.47;7312937;19;129505;-39
2022/03/05 02:23:42;;;;;;;21.60;2.38;;;;;;;23.03;51.31;100049.53;7315336;19;129219;-39
2022/03/05 02:26:08;;;;;;;32.87;3.13;;;;;;;23.31;51.21;100061.00;7314044;19;131837;-38
2022/03/05 02:28:35;;;;;;;23.27;2.63;;;;;;;23.43;50.90;100055.47;7313925;19;129625;-41
2022/03/05 02:31:01;;;;;;;46.83;4.57;;;;;;;23.57;50.06;100062.91;7312537;19;128859;-38
2022/03/05 02:33:26;;;;;;;17.45;1.90;;;;;;;23.66;49.79;100051.56;7315413;19;130713;-38
2022/03/05 02:35:52;;;;;;;32.60;3.27;;;;;;;23.90;49.03;100062.41;7313022;19;129373;-40
2022/03/05 02:38:19;;;;;;;34.55;3.42;;;;;;;23.99;48.94;100058.97;7313673;19;158746;-38
2022/03/05 02:40:46;;;;;;;21.55;2.45;;;;;;;24.05;48.74;100068.88;7314848;19;129122;-38
2022/03/05 02:43:12;;;;;;;23.88;2.60;;;;;;;24.02;48.37;100063.91;7315055;19;128801;-40
2022/03/05 02:45:38;;;;;;;20.05;2.10;;;;;;;23.98;48.42;100061.72;7312468;19;129032;-41
2022/03/05 02:48:07;;;;;;;23.95;2.65;;;;;;;23.90;48.94;100054.53;7311059;19;129662;-38
2022/03/05 02:50:32;;;;;;;22.20;2.83;;;;;;;23.80;49.03;100058.97;7313194;19;129084;-41
2022/03/05 02:52:58;;;;;;;36.95;3.55;;;;;;;23.70;49.26;100052.91;7312381;19;144576;-39
2022/03/05 02:55:24;;;;;;;33.07;3.80;;;;;;;23.58;49.92;100058.47;7312938;19;129656;-41
2022/03/05 02:57:49;;;;;;;30.90;3.15;;;;;;;23.39;50.48;100033.09;7308527;19;132299;-40
2022/03/05 03:00:15;;;;;;;37.23;3.87;;;;;;;23.38;50.69;100056.84;7312785;19;128852;-40
2022/03/05 03:02:40;;;;;;;24.60;2.67;;;;;;;23.24;51.09;100050.19;7314296;19;128969;-40
2022/03/05 03:05:06;;;;;;;46.38;4.45;;;;;;;23.16;50.80;100052.69;7312029;19;129541;-40
2022/03/05 03:07:31;;;;;;;18.13;2.10;;;;;;;23.08;51.23;100055.19;7311068;19;130581;-41
2022/03/05 03:09:58;;;;;;;33.92;3.30;;;;;;;22.98;51.85;100059.59;7311904;19;133699;-40
2022/03/05 03:12:24;;;;;;;23.55;2.38;;;;;;;22.92;51.70;100060.16;7310844;19;129321;-41
2022/03/05 03:14:49;;;;;;;31.38;2.90;;;;;;;22.87;52.39;100057.09;7314601;19;129289;-41
2022/03/05 03:17:15;;;;;;;24.35;2.75;;;;;;;22.84;52.15;100052.16;7308140;19;158757;-39
2022/03/05 03:19:40;;;;;;;31.73;3.25;;;;;;;22.68;52.67;100041.34;7313253;19;129944;-41
2022/03/05 03:22:05;;;;;;;30.23;3.07;;;;;;;22.75;52.26;100053.78;7310994;19;154177;-41
2022/03/05 03:24:30;;;;;;;17.75;2.05;;;;;;;22.76;53.56;100057.22;7312013;19;148654;-41
2022/03/05 03:26:56;;;;;;;33.92;3.17;;;;;;;22.76;52.60;100044.09;7309432;19;158777;-40
2022/03/05 03:29:21;;;;;;;37.13;3.45;;;;;;;22.80;53.00;100053.38;7311340;19;154513;-40
2022/03/05 03:31:46;;;;;;;7.17;1.50;;;;;;;22.68;53.22;100054.44;7310410;19;136113;-41
2022/03/05 03:34:11;;;;;;;69.47;6.10;;;;;;;22.61;53.49;100053.34;7310864;19;149186;-40
2022/03/05 03:36:37;;;;;;;23.73;2.60;;;;;;;22.65;53.02;100049.47;7309913;19;158477;-41
2022/03/05 03:39:03;;;;;;;29.83;2.95;;;;;;;22.75;52.54;100045.09;7312681;19;129011;-41
2022/03/05 03:41:28;;;;;;;19.47;2.33;;;;;;;22.89;52.10;100055.19;7312317;19;129622;-40
2022/03/05 03:43:53;;;;;;;16.97;2.17;;;;;;;23.01;52.07;100052.28;7311430;19;158518;-39
2022/03/05 03:46:19;;;;;;;57.97;5.15;;;;;;;23.19;51.03;100048.00;7308653;19;158444;-40
2022/03/05 03:48:44;;;;;;;27.27;2.92;;;;;;;23.35;50.55;100047.47;7310522;19;154666;-40
2022/03/05 03:51:09;;;;;;;35.53;3.22;;;;;;;23.53;50.31;100052.81;7308814;19;154954;-41
2022/03/05 03:53:35;;;;;;;16.92;2.05;;;;;;;23.87;49.21;100048.72;7311762;19;158622;-41
2022/03/05 03:56:00;;;;;;;47.03;4.18;;;;;;;24.35;48.12;100050.22;7310364;19;130988;-39
2022/03/05 03:58:25;;;;;;;18.33;2.10;;;;;;;24.81;46.77;100043.19;7312052;19;129115;-41
2022/03/05 04:00:50;;;;;;;21.65;2.40;;;;;;;25.10;46.34;100038.53;7311756;19;129371;-38
2022/03/05 04:03:16;;;;;;;31.75;3.25;;;;;;;25.49;45.54;100058.28;7309431;19;158325;-38
2022/03/05 04:05:41;;;;;;;26.70;3.10;;;;;;;25.66;44.64;100053.00;7311128;19;130830;-38
2022/03/05 04:10:50;;;;;;;31.67;3.15;;;;;;;26.00;44.27;100053.00;7310689;19;129007;-40
2022/03/05 04:13:16;;;;;;;31.07;3.13;;;;;;;26.08;44.23;100053.06;7312644;19;129531;-38
2022/03/05 04:15:41;;;;;;;24.07;2.67;;;;;;;26.13;44.06;100056.06;7311322;19;154354;-39
2022/03/05 04:18:07;;;;;;;46.20;4.60;;;;;;;26.17;43.48;100048.66;7305478;19;128945;-39
2022/03/05 04:20:33;;;;;;;25.93;2.73;;;;;;;26.24;43.40;100052.31;7310616;19;129058;-37
2022/03/05 04:22:59;;;;;;;32.88;2.97;;;;;;;26.24;43.77;100047.91;7311486;19;130114;-36
2022/03/05 04:25:25;;;;;;;48.42;4.57;;;;;;;26.27;43.03;100047.56;7309355;19;130847;-38
2022/03/05 04:27:50;;;;;;;30.52;2.92;;;;;;;26.26;43.41;100053.81;7309411;19;129462;-38
2022/03/05 04:30:16;;;;;;;41.43;4.37;;;;;;;26.28;43.58;100051.03;7309039;19;154759;-38
2022/03/05 04:32:41;;;;;;;28.83;2.87;;;;;;;26.27;43.57;100055.47;7309949;19;129490;-38
2022/03/05 04:35:08;;;;;;;35.35;3.47;;;;;;;26.22;43.56;100041.09;7310230;19;130255;-39
2022/03/05 04:37:33;;;;;;;20.23;2.35;;;;;;;26.33;43.48;100049.56;7308559;19;129282;-39
2022/03/05 04:39:58;;;;;;;35.50;3.37;;;;;;;26.35;43.38;100050.22;7309745;19;128994;-38
2022/03/05 04:42:24;;;;;;;26.23;2.67;;;;;;;26.30;43.53;100049.88;7309060;19;159306;-38
2022/03/05 04:44:49;;;;;;;22.60;2.37;;;;;;;26.32;43.51;100055.81;7308803;19;157486;-39
2022/03/05 04:47:14;;;;;;;39.30;3.73;;;;;;;26.34;43.08;100055.66;7306332;19;154761;-38
2022/03/05 04:49:40;;;;;;;23.50;2.57;;;;;;;26.37;43.42;100050.91;7308063;19;153913;-40
2022/03/05 04:52:05;;;;;;;28.20;3.20;;;;;;;26.34;43.23;100053.88;7309316;19;159056;-39
2022/03/05 04:54:33;;;;;;;28.73;3.03;;;;;;;26.36;43.77;100064.25;7317598;19;130768;-39
2022/03/05 04:56:58;;;;;;;46.80;4.25;;;;;;;26.40;42.93;100066.41;7313584;19;129467;-40
2022/03/05 04:59:23;;;;;;;17.80;2.07;;;;;;;26.39;43.42;100064.75;7317016;19;129091;-38
2022/03/05 05:01:49;;;;;;;42.95;4.00;;;;;;;26.41;43.34;100062.75;7313289;19;160096;-39
2022/03/05 05:04:14;;;;;;;31.93;3.30;;;;;;;26.38;43.82;100057.81;7317463;19;130498;-41
2022/03/05 05:06:39;;;;;;;10.23;1.80;;;;;;;26.39;43.57;100063.94;7315392;19;130117;-38
2022/03/05 05:09:05;;;;;;;45.23;4.23;;;;;;;26.35;43.12;100066.06;7314972;19;144528;-39
2022/03/05 05:11:30;;;;;;;21.77;2.50;;;;;;;26.40;43.46;100062.94;7314353;19;147805;-38
2022/03/05 05:13:55;;;;;;;24.43;2.60;;;;;;;26.27;43.28;100070.47;7315941;19;130655;-39
2022/03/05 05:16:21;;;;;;;31.60;3.30;;;;;;;26.14;43.63;100064.81;7315279;19;129675;-39
2022/03/05 05:19:31;;;;;;;21.63;2.33;;;;;;;25.94;44.75;100069.44;7316235;19;136115;-38
2022/03/05 05:21:32;;;;;;;16.83;1.80;;;;;;;25.80;45.05;100075.28;7315542;19;129970;-38
2022/03/05 05:23:57;;;;;;;21.33;2.20;;;;;;;25.64;45.13;100064.63;7316529;19;129239;-39
2022/03/05 05:26:22;;;;;;;25.67;2.40;;;;;;;25.57;45.76;100071.50;7313378;19;155087;-38
2022/03/05 05:28:48;;;;;;;32.40;3.07;;;;;;;25.53;45.05;100081.53;7317328;19;129596;-38
2022/03/05 05:31:13;;;;;;;29.95;3.13;;;;;;;25.49;46.01;100079.34;7315906;19;129483;-38
2022/03/05 05:33:43;;;;;;;21.10;2.27;;;;;;;25.48;45.76;100083.81;7315704;19;158543;-38
2022/03/05 05:36:09;;;;;;;23.63;2.70;;;;;;;25.45;45.97;100083.28;7315670;19;129393;-39
2022/03/05 05:38:34;;;;;;;27.60;2.53;;;;;;;25.45;45.46;100088.53;7313599;19;129037;-38
2022/03/05 05:40:59;;;;;;;20.43;2.50;;;;;;;25.51;45.93;100080.03;7312901;19;158452;-39
2022/03/05 05:43:25;;;;;;;31.07;3.00;;;;;;;25.54;45.58;100083.19;7313613;19;158726;-38
2022/03/05 05:45:50;;;;;;;23.77;2.60;;;;;;;25.57;45.60;100089.94;7314564;19;154311;-38
2022/03/05 05:48:15;;;;;;;28.50;2.83;;;;;;;25.61;45.84;100088.66;7313981;19;154333;-38
2022/03/05 05:50:42;;;;;;;21.67;2.23;;;;;;;25.64;44.97;100089.19;7314816;19;129749;-38
2022/03/05 05:53:07;;;;;;;33.72;3.10;;;;;;;25.69;45.57;100080.81;7315444;19;130461;-39
2022/03/05 05:55:33;;;;;;;28.57;2.93;;;;;;;25.70;45.39;100088.56;7312802;19;154544;-38
2022/03/05 05:57:58;;;;;;;30.63;3.33;;;;;;;25.70;45.13;100077.22;7309622;19;151149;-40
2022/03/05 06:00:23;;;;;;;30.13;2.97;;;;;;;25.76;44.62;100086.28;7313655;19;158198;-38
2022/03/05 06:02:48;;;;;;;24.77;2.43;;;;;;;25.79;45.11;100086.81;7311441;19;158357;-39
2022/03/05 06:05:14;;;;;;;34.72;3.42;;;;;;;25.84;44.83;100087.16;7312750;19;154928;-37
2022/03/05 06:07:39;;;;;;;34.10;3.03;;;;;;;25.88;44.83;100083.25;7312751;19;128870;-40
2022/03/05 06:10:07;;;;;;;38.45;3.88;;;;;;;25.88;44.83;100083.25;7313426;19;130291;-38
2022/03/05 06:12:32;;;;;;;32.22;3.17;;;;;;;25.98;45.00;100094.47;7313402;19;130293;-38
2022/03/05 06:14:57;;;;;;;43.77;3.90;;;;;;;26.01;44.84;100101.28;7307801;19;154829;-38
2022/03/05 06:17:22;;;;;;;31.57;3.27;;;;;;;26.06;44.55;100102.50;7307202;19;154035;-39
2022/03/05 06:19:48;;;;;;;48.53;4.43;;;;;;;26.10;44.43;100095.09;7311964;19;158867;-38
2022/03/05 06:22:13;;;;;;;32.23;3.17;;;;;;;26.02;44.63;100087.97;7307858;19;157654;-39
2022/03/05 06:24:38;;;;;;;32.97;3.03;;;;;;;26.09;44.24;100099.53;7307133;19;154862;-38
2022/03/05 06:27:04;;;;;;;35.80;3.73;;;;;;;26.09;43.87;100104.81;7307257;19;155189;-40
2022/03/05 06:29:30;;;;;;;36.80;3.40;;;;;;;25.98;44.47;100112.94;7313947;19;129611;-39
2022/03/05 06:31:55;;;;;;;44.50;4.23;;;;;;;25.83;45.17;100109.25;7305083;19;142517;-40
2022/03/05 06:34:20;;;;;;;11.85;1.75;;;;;;;25.66;45.47;100112.72;7309995;19;154433;-39
2022/03/05 06:36:45;;;;;;;25.80;2.53;;;;;;;25.55;45.32;100115.63;7311983;19;131354;-39
2022/03/05 06:39:10;;;;;;;36.90;3.57;;;;;;;25.49;45.95;100110.94;7313146;19;158731;-38
2022/03/05 06:41:36;;;;;;;32.33;3.17;;;;;;;25.38;45.79;100103.28;7310058;19;161022;-39
2022/03/05 06:44:01;;;;;;;37.78;3.75;;;;;;;25.42;45.66;100123.06;7312605;19;154874;-38
2022/03/05 06:46:26;;;;;;;26.75;2.78;;;;;;;25.46;45.46;100116.50;7311497;19;152832;-38
2022/03/05 06:48:52;;;;;;;20.92;2.15;;;;;;;25.50;45.27;100112.59;7310212;19;158147;-39
2022/03/05 06:51:17;;;;;;;58.00;5.13;;;;;;;25.63;45.86;100119.09;7309967;19;159098;-39
2022/03/05 06:53:42;;;;;;;30.77;3.10;;;;;;;25.65;45.43;100116.34;7312850;19;136416;-39
2022/03/05 06:56:08;;;;;;;29.80;2.93;;;;;;;25.72;45.17;100112.09;7311274;19;154343;-38
2022/03/05 06:58:33;;;;;;;33.20;2.90;;;;;;;25.76;45.22;100124.00;7312397;19;129889;-39
2022/03/05 07:00:58;;;;;;;31.13;2.90;;;;;;;25.80;44.79;100120.06;7313134;19;142689;-39
2022/03/05 07:03:23;;;;;;;25.10;2.43;;;;;;;25.88;44.41;100128.03;7310219;19;154975;-38
2022/03/05 07:05:49;;;;;;;25.50;2.40;;;;;;;25.94;44.32;100116.88;7309332;19;154452;-39
2022/03/05 07:08:14;;;;;;;29.73;2.90;;;;;;;25.98;44.66;100128.75;7308327;19;157274;-38
2022/03/05 07:10:39;;;;;;;25.60;2.87;;;;;;;26.04;44.34;100128.16;7309602;19;158185;-38
2022/03/05 07:13:04;;;;;;;40.30;4.10;;;;;;;26.07;44.04;100119.13;7308916;19;154413;-39
2022/03/05 07:15:30;;;;;;;52.38;4.95;;;;;;;26.10;44.22;100124.09;7309348;19;129062;-38
2022/03/05 07:17:55;;;;;;;26.65;2.80;;;;;;;26.11;44.36;100123.09;7310173;19;129333;-38
2022/03/05 07:20:22;;;;;;;30.07;3.10;;;;;;;26.17;43.87;100128.56;7311848;19;130961;-38
2022/03/05 07:22:47;;;;;;;;;;;;;;;26.15;44.25;100135.81;7312732;19;129191;-38
2022/03/05 07:25:14;;;;;;;29.93;3.37;;;;;;;26.16;44.38;100126.94;7309861;19;154087;-40
2022/03/05 07:27:39;;;;;;;30.83;3.33;;;;;;;26.22;44.02;100130.72;7309770;19;130602;-39
2022/03/05 07:30:06;;;;;;;32.90;3.20;;;;;;;26.25;44.48;100131.25;7309419;19;130334;-38
2022/03/05 07:32:31;;;;;;;22.90;2.55;;;;;;;26.18;44.55;100124.94;7311084;19;129105;-40
2022/03/05 07:34:56;;;;;;;28.90;2.93;;;;;;;26.10;44.63;100132.81;7310883;19;141404;-37
2022/03/05 07:37:21;;;;;;;32.97;3.03;;;;;;;25.91;45.14;100138.25;7309216;19;142823;-38
2022/03/05 07:39:47;;;;;;;35.23;3.63;;;;;;;25.76;45.14;100134.53;7308122;19;158528;-39
2022/03/05 07:42:12;;;;;;;45.80;4.50;;;;;;;25.62;45.22;100137.69;7305621;19;154397;-38
2022/03/05 07:44:37;;;;;;;36.33;3.27;;;;;;;25.46;45.19;100117.34;7307991;19;143407;-39
2022/03/05 07:47:04;;;;;;;23.97;3.07;;;;;;;25.55;45.71;100141.94;7308429;19;131215;-39
2022/03/05 07:49:29;;;;;;;34.78;3.70;;;;;;;25.54;45.46;100142.91;7309619;19;133864;-38
2022/03/05 07:51:56;;;;;;;31.10;3.43;;;;;;;25.56;45.80;100136.53;7305813;19;154512;-38
2022/03/05 07:54:22;;;;;;;23.30;2.85;;;;;;;25.64;45.29;100141.84;7309794;19;129333;-38
2022/03/05 07:56:47;;;;;;;57.10;5.18;;;;;;;25.71;45.60;100147.34;7308638;19;130249;-40
2022/03/05 07:59:13;;;;;;;27.73;3.07;;;;;;;25.80;45.28;100146.41;7312593;19;130416;-41
2022/03/05 08:01:38;;;;;;;28.37;3.20;;;;;;;25.89;44.73;100149.94;7310253;19;129465;-41
2022/03/05 08:04:04;;;;;;;30.57;3.27;;;;;;;25.93;44.88;100154.75;7311453;19;154013;-39
2022/03/05 08:06:29;;;;;;;36.47;3.57;;;;;;;26.00;44.67;100153.13;7309200;19;129535;-41
2022/03/05 08:08:57;;;;;;;30.80;3.13;;;;;;;26.03;44.98;100147.56;7310379;19;130227;-40
2022/03/05 08:11:23;;;;;;;41.78;4.25;;;;;;;26.07;44.88;100148.09;7310459;19;129261;-41
2022/03/05 08:13:48;;;;;;;25.93;2.83;;;;;;;26.13;44.67;100148.31;7312081;19;129417;-41
2022/03/05 08:16:13;;;;;;;26.48;2.70;;;;;;;26.15;44.36;100141.06;7308826;19;158217;-41
2022/03/05 08:18:39;;;;;;;22.07;2.80;;;;;;;26.21;44.18;100140.47;7308438;19;159846;-39
2022/03/05 08:21:04;;;;;;;34.77;3.73;;;;;;;26.13;44.53;100126.41;7308907;19;150788;-40
2022/03/05 08:23:29;;;;;;;21.17;2.33;;;;;;;26.24;44.41;100141.94;7310853;19;129682;-40
2022/03/05 08:25:54;;;;;;;40.17;4.27;;;;;;;26.28;43.87;100141.47;7311643;19;158311;-42
2022/03/05 08:28:22;;;;;;;37.83;3.80;;;;;;;26.31;44.40;100150.91;7315437;19;140699;-41
2022/03/05 08:30:47;;;;;;;30.15;3.33;;;;;;;26.26;43.57;100146.06;7314168;19;128908;-40
2022/03/05 08:33:12;;;;;;;35.57;3.67;;;;;;;26.23;44.07;100154.31;7315145;19;129095;-41
2022/03/05 08:35:38;;;;;;;33.05;3.33;;;;;;;26.07;44.33;100148.94;7314078;19;149880;-40
2022/03/05 08:38:03;;;;;;;28.87;3.13;;;;;;;25.93;44.90;100162.66;7313971;19;158790;-40
2022/03/05 08:40:28;;;;;;;34.75;3.72;;;;;;;25.74;45.73;100152.28;7316268;19;129041;-39
2022/03/05 08:42:54;;;;;;;31.95;3.33;;;;;;;25.58;45.64;100150.34;7314589;19;154726;-41
2022/03/05 08:45:19;;;;;;;61.10;6.17;;;;;;;25.51;46.24;100153.75;7316828;19;130080;-40
2022/03/05 08:47:45;;;;;;;30.37;3.10;;;;;;;25.51;46.18;100153.75;7313964;19;130468;-41
2022/03/05 08:50:10;;;;;;;37.13;3.73;;;;;;;25.50;45.72;100154.72;7316887;19;129318;-38
2022/03/05 08:52:36;;;;;;;44.97;3.97;;;;;;;25.62;46.08;100150.88;7313691;19;130210;-40
2022/03/05 08:55:10;;;;;;;53.70;5.10;;;;;;;25.65;45.42;100159.28;7316481;19;130911;-39
2022/03/05 08:57:36;;;;;;;54.28;5.18;;;;;;;25.77;45.43;100154.63;7313861;19;129384;-41
2022/03/05 09:00:05;;;;;;;26.30;2.93;;;;;;;25.81;45.35;100158.59;7317384;19;129229;-41
2022/03/05 09:02:30;;;;;;;19.70;2.50;;;;;;;25.82;44.89;100160.25;7316576;19;129468;-41
2022/03/05 09:04:56;;;;;;;27.83;3.07;;;;;;;25.81;45.19;100152.50;7316261;19;130204;-40
2022/03/05 09:07:21;;;;;;;39.10;3.90;;;;;;;25.73;45.46;100161.19;7313160;19;130458;-41
2022/03/05 09:09:46;;;;;;;40.77;4.63;;;;;;;25.62;45.38;100156.97;7314768;19;129567;-40
2022/03/05 09:12:11;;;;;;;27.93;3.00;;;;;;;25.59;45.49;100159.06;7313277;19;154006;-42
2022/03/05 09:14:37;;;;;;;40.40;4.07;;;;;;;25.50;46.21;100160.81;7315924;19;132344;-40
2022/03/05 09:17:04;;;;;;;25.27;3.03;;;;;;;25.30;46.49;100142.66;7312675;19;158442;-42
2022/03/05 09:19:29;;;;;;;40.92;4.18;;;;;;;25.31;46.32;100154.84;7314995;19;129068;-41
2022/03/05 09:21:55;;;;;;;22.47;2.63;;;;;;;25.31;46.71;100149.56;7310776;19;152044;-39
2022/03/05 09:24:20;;;;;;;54.07;5.40;;;;;;;25.40;46.04;100143.44;7312802;19;158274;-41
2022/03/05 09:26:45;;;;;;;41.97;3.90;;;;;;;25.47;45.96;100155.00;7312837;19;141542;-42
2022/03/05 09:29:10;;;;;;;50.30;4.53;;;;;;;25.56;45.96;100143.59;7311154;19;155037;-43
2022/03/05 09:31:36;;;;;;;40.30;3.80;;;;;;;25.62;46.04;100150.88;7310762;19;129121;-41
2022/03/05 09:34:02;;;;;;;25.48;3.17;;;;;;;25.69;45.27;100155.38;7313988;19;130574;-41
2022/03/05 09:36:27;;;;;;;30.53;2.90;;;;;;;25.80;45.73;100159.56;7310174;19;159239;-38
2022/03/05 09:38:52;;;;;;;21.17;2.63;;;;;;;25.90;44.81;100154.22;7313446;19;154410;-41
2022/03/05 09:41:17;;;;;;;28.27;3.17;;;;;;;25.97;45.69;100164.00;7315326;19;135549;-40
2022/03/05 09:43:43;;;;;;;31.00;3.33;;;;;;;26.02;45.00;100161.75;7313760;19;158546;-41
2022/03/05 09:46:09;;;;;;;27.07;2.90;;;;;;;26.06;45.02;100157.84;7313806;19;130414;-41
2022/03/05 09:48:39;;;;;;;34.00;3.47;;;;;;;26.15;44.72;100156.06;7313290;19;155383;-39
2022/03/05 09:51:04;;;;;;;26.55;2.88;;;;;;;26.23;44.23;100151.66;7315732;19;130857;-39
2022/03/05 09:53:30;;;;;;;39.80;4.17;;;;;;;26.26;44.70;100146.06;7310186;19;157712;-40
2022/03/05 09:55:56;;;;;;;25.13;2.80;;;;;;;26.36;44.27;100154.69;7312830;19;129685;-41
2022/03/05 09:58:22;;;;;;;41.70;4.13;;;;;;;26.37;44.30;100151.09;7314001;19;129796;-41
2022/03/05 10:00:47;;;;;;;24.50;2.67;;;;;;;26.38;44.02;100152.75;7314585;19;129649;-40
2022/03/05 10:03:14;;;;;;;31.97;3.53;;;;;;;26.29;44.10;100145.78;7315822;19;129623;-40
2022/03/05 10:05:39;;;;;;;21.30;2.60;;;;;;;26.21;44.54;100151.00;7314566;19;130875;-41
2022/03/05 10:08:09;;;;;;;43.50;4.43;;;;;;;26.04;44.73;100154.53;7313360;19;146914;-41
2022/03/05 10:10:46;;;;;;;12.30;1.83;;;;;;;25.90;44.92;100162.13;7314227;19;129012;-40
2022/03/05 10:13:31;;;;;;;26.25;2.75;;;;;;;25.68;45.62;100158.19;7314161;19;130295;-40
2022/03/05 10:16:25;;;;;;;9.43;1.55;;;;;;;25.51;46.07;100156.38;7314586;19;129369;-41
2022/03/05 10:18:50;;;;;;;20.95;2.65;;;;;;;25.45;45.95;100157.00;7313071;19;129326;-41
2022/03/05 10:21:16;;;;;;;51.47;4.90;;;;;;;25.46;46.24;100163.91;7311695;19;154867;-40
2022/03/05 10:23:47;;;;;;;31.20;3.00;;;;;;;25.37;46.40;100138.50;7313740;19;129624;-41
2022/03/05 10:26:15;;;;;;;31.63;3.38;;;;;;;25.52;45.96;100145.69;7314308;19;130772;-41
2022/03/05 10:28:40;;;;;;;15.15;2.05;;;;;;;25.64;46.29;100146.28;7314996;19;128932;-41
2022/03/05 10:31:12;;;;;;;29.80;3.30;;;;;;;25.72;45.96;100143.72;7314888;19;129834;-42
2022/03/05 10:33:39;;;;;;;55.00;5.03;;;;;;;25.85;45.72;100144.13;7310017;19;130206;-39
2022/03/05 10:36:22;;;;;;;31.85;3.35;;;;;;;25.91;45.80;100138.25;7308464;19;151810;-40
2022/03/05 10:38:59;;;;;;;22.95;2.42;;;;;;;25.93;44.66;100125.78;7314882;19;129013;-40
2022/03/05 10:41:32;;;;;;;;;;;;;;;26.04;45.36;100146.63;7313997;19;129411;-41
2022/03/05 10:44:15;;;;;;;27.52;2.85;;;;;;;26.19;44.96;100136.31;7313951;19;130163;-39
2022/03/05 10:46:43;;;;;;;29.50;3.08;;;;;;;26.24;44.55;100139.31;7311996;19;130364;-41
2022/03/05 10:49:41;;;;;;;35.70;3.53;;;;;;;26.28;44.82;100136.22;7312007;19;130436;-41
2022/03/05 10:52:09;;;;;;;36.17;3.50;;;;;;;26.36;44.59;100138.06;7307662;19;136885;-40
2022/03/05 10:54:38;;;;;;;26.02;2.50;;;;;;;26.36;44.63;100133.59;7313101;19;129553;-39
2022/03/05 10:57:14;;;;;;;24.80;2.65;;;;;;;26.27;44.29;100129.28;7309909;19;130505;-40
2022/03/05 10:59:41;;;;;;;33.53;3.58;;;;;;;26.11;44.79;100120.47;7312176;19;129621;-39
2022/03/05 11:02:07;;;;;;;30.52;3.13;;;;;;;25.96;44.80;100125.47;7313654;19;129341;-39
2022/03/05 11:04:37;;;;;;;20.80;2.50;;;;;;;25.80;45.59;100127.97;7314986;19;129672;-38
2022/03/05 11:07:03;;;;;;;46.08;4.20;;;;;;;25.54;46.37;100108.66;7308606;19;131077;-39